Time;durP1;ratioP1;P1;durP2;ratioP2;P2;SDS_P1;SDS_P2;PMS_P1;PMS_P2;Temp;Humidity;BMP_temperature;BMP_pressure;BME280_temperature;BME280_humidity;BME280_pressure;Samples;Min_cycle;Max_cycle;Signal;HPM_P1;HPM_P2
2022/12/17 13:07:20;;;;;;;48.23;31.37;;;;;;;;;;5088508;28;20450;-75
2022/12/17 13:09:49;;;;;;;47.73;32.30;;;;;;;;;;5081807;28;20435;-76
2022/12/17 13:12:24;;;;;;;49.07;30.70;;;;;;;;;;5087796;28;20581;-76
2022/12/17 13:14:54;;;;;;;44.07;30.53;;;;;;;;;;5084389;28;20432;-76
2022/12/17 13:17:32;;;;;;;51.00;30.87;;;;;;;;;;5075510;28;20471;-77
2022/12/17 13:20:01;;;;;;;47.23;32.27;;;;;;;;;;5073753;28;20429;-75
2022/12/17 13:22:29;;;;;;;47.53;32.13;;;;;;;;;;5074696;28;20440;-75
2022/12/17 13:25:09;;;;;;;47.70;30.00;;;;;;;;;;5074033;28;20484;-75
2022/12/17 13:27:37;;;;;;;45.83;31.00;;;;;;;;;;5074416;28;20523;-76
2022/12/17 13:30:20;;;;;;;47.80;32.50;;;;;;;;;;5074087;28;20590;-75
2022/12/17 13:32:51;;;;;;;49.90;32.50;;;;;;;;;;5076925;28;20428;-75
2022/12/17 13:35:22;;;;;;;47.93;32.43;;;;;;;;;;5094148;28;20427;-75
2022/12/17 13:37:53;;;;;;;47.03;30.23;;;;;;;;;;5094685;28;20468;-76
2022/12/17 13:40:28;;;;;;;52.53;33.47;;;;;;;;;;5098481;28;20444;-76
2022/12/17 13:42:56;;;;;;;49.27;32.67;;;;;;;;;;5096976;28;20473;-77
2022/12/17 13:45:24;;;;;;;42.80;30.63;;;;;;;;;;5095162;28;20463;-75
2022/12/17 13:47:56;;;;;;;46.40;30.00;;;;;;;;;;5086861;28;20447;-75
2022/12/17 13:50:24;;;;;;;48.37;30.87;;;;;;;;;;5073938;28;20460;-75
2022/12/17 13:52:51;;;;;;;48.60;31.20;;;;;;;;;;5075290;28;20445;-76
2022/12/17 13:55:20;;;;;;;52.97;32.67;;;;;;;;;;5080309;28;20437;-74
2022/12/17 13:57:47;;;;;;;47.77;32.23;;;;;;;;;;5076476;28;20461;-74
2022/12/17 14:00:20;;;;;;;46.67;31.70;;;;;;;;;;5076852;28;20440;-77
2022/12/17 14:02:47;;;;;;;48.03;31.90;;;;;;;;;;5076609;28;20441;-75
2022/12/17 14:05:24;;;;;;;49.13;32.83;;;;;;;;;;5087238;28;20818;-76
2022/12/17 14:07:51;;;;;;;42.90;29.83;;;;;;;;;;5113910;28;20450;-77
2022/12/17 14:10:19;;;;;;;46.57;32.57;;;;;;;;;;5114180;28;20450;-76
2022/12/17 14:12:46;;;;;;;46.57;30.10;;;;;;;;;;5113701;28;20434;-76
2022/12/17 14:15:19;;;;;;;45.80;29.57;;;;;;;;;;5113419;28;20439;-75
2022/12/17 14:17:47;;;;;;;51.17;32.70;;;;;;;;;;5113795;28;20474;-76
2022/12/17 14:20:15;;;;;;;48.97;32.60;;;;;;;;;;5113926;28;20447;-75
2022/12/17 14:22:44;;;;;;;46.53;31.63;;;;;;;;;;5114165;28;20452;-75
2022/12/17 14:25:15;;;;;;;49.00;32.07;;;;;;;;;;5113779;28;20470;-75
2022/12/17 14:27:50;;;;;;;49.73;33.40;;;;;;;;;;5113308;28;20471;-75
2022/12/17 14:30:21;;;;;;;51.50;31.50;;;;;;;;;;5112888;28;21103;-75
2022/12/17 14:32:48;;;;;;;58.60;36.80;;;;;;;;;;5113055;28;20431;-75
2022/12/17 14:35:25;;;;;;;49.37;33.63;;;;;;;;;;5096012;28;20506;-75
2022/12/17 14:37:54;;;;;;;50.90;34.23;;;;;;;;;;5084186;28;20450;-75
2022/12/17 14:40:21;;;;;;;53.23;34.67;;;;;;;;;;5102563;28;20436;-73
2022/12/17 14:42:49;;;;;;;50.57;32.00;;;;;;;;;;5104210;28;20447;-75
2022/12/17 14:45:23;;;;;;;48.70;32.30;;;;;;;;;;5107478;28;20881;-74
2022/12/17 14:47:54;;;;;;;54.07;35.60;;;;;;;;;;5105440;28;20833;-75
2022/12/17 14:50:30;;;;;;;51.70;33.80;;;;;;;;;;5106097;28;20834;-75
2022/12/17 14:52:59;;;;;;;52.23;35.80;;;;;;;;;;5097004;28;20443;-76
2022/12/17 14:55:34;;;;;;;53.40;34.00;;;;;;;;;;5093225;28;20454;-75
2022/12/17 14:58:18;;;;;;;52.70;34.33;;;;;;;;;;5092842;28;20447;-76
2022/12/17 15:00:46;;;;;;;46.90;33.10;;;;;;;;;;5091919;28;20456;-75
2022/12/17 15:03:17;;;;;;;51.53;32.57;;;;;;;;;;5091642;28;20447;-76
2022/12/17 15:05:47;;;;;;;49.53;34.77;;;;;;;;;;5092003;28;20478;-75
2022/12/17 15:08:16;;;;;;;51.63;33.83;;;;;;;;;;5091687;28;20490;-76
2022/12/17 15:10:43;;;;;;;51.03;34.47;;;;;;;;;;5091737;28;20446;-75
2022/12/17 15:13:10;;;;;;;51.20;34.37;;;;;;;;;;5090891;28;20442;-77
2022/12/17 15:15:37;;;;;;;50.37;32.90;;;;;;;;;;5091418;28;20856;-75
2022/12/17 15:18:04;;;;;;;51.47;33.23;;;;;;;;;;5092119;28;20440;-76
2022/12/17 15:20:31;;;;;;;58.20;35.20;;;;;;;;;;5091555;28;20447;-75
2022/12/17 15:22:58;;;;;;;54.20;34.93;;;;;;;;;;5091282;28;20432;-76
2022/12/17 15:25:26;;;;;;;48.30;34.20;;;;;;;;;;5091466;28;20487;-75
2022/12/17 15:27:54;;;;;;;57.37;35.30;;;;;;;;;;5091475;28;20451;-76
2022/12/17 15:30:21;;;;;;;51.53;34.53;;;;;;;;;;5091828;28;20443;-76
2022/12/17 15:32:48;;;;;;;52.90;34.37;;;;;;;;;;5091416;28;20448;-76
2022/12/17 15:35:15;;;;;;;58.20;33.57;;;;;;;;;;5091884;28;20428;-76
2022/12/17 15:37:42;;;;;;;59.07;36.13;;;;;;;;;;5091408;28;20470;-76
2022/12/17 15:40:10;;;;;;;55.67;35.60;;;;;;;;;;5091618;28;20443;-76
2022/12/17 15:45:25;;;;;;;60.33;37.83;;;;;;;;;;5091183;28;20577;-75
2022/12/17 15:47:52;;;;;;;53.43;35.30;;;;;;;;;;5091461;28;20439;-76
2022/12/17 15:50:19;;;;;;;61.47;37.07;;;;;;;;;;5092032;28;20450;-76
2022/12/17 15:52:46;;;;;;;57.23;36.57;;;;;;;;;;5091275;28;20982;-75
2022/12/17 15:55:15;;;;;;;61.70;39.40;;;;;;;;;;5091400;28;20504;-75
2022/12/17 15:57:43;;;;;;;58.17;37.00;;;;;;;;;;5091334;28;20840;-75
2022/12/17 16:00:11;;;;;;;60.67;37.00;;;;;;;;;;5092940;28;20774;-75
2022/12/17 16:02:38;;;;;;;58.23;37.40;;;;;;;;;;5091559;28;20823;-75
2022/12/17 16:05:05;;;;;;;56.23;34.37;;;;;;;;;;5092530;28;20479;-75
2022/12/17 16:07:33;;;;;;;54.50;36.13;;;;;;;;;;5091059;28;20467;-75
2022/12/17 16:10:00;;;;;;;57.93;37.33;;;;;;;;;;5092993;28;20444;-76
2022/12/17 16:12:27;;;;;;;55.70;36.83;;;;;;;;;;5091793;28;20448;-74
2022/12/17 16:14:55;;;;;;;57.33;37.67;;;;;;;;;;5078822;28;20437;-76
2022/12/17 16:17:22;;;;;;;52.60;35.30;;;;;;;;;;5072404;28;20473;-76
2022/12/17 16:19:49;;;;;;;52.23;33.20;;;;;;;;;;5071594;28;21271;-75
2022/12/17 16:22:16;;;;;;;61.13;37.07;;;;;;;;;;5071133;28;20820;-75
2022/12/17 16:24:45;;;;;;;55.40;36.43;;;;;;;;;;5071301;28;20516;-76
2022/12/17 16:27:12;;;;;;;61.57;37.77;;;;;;;;;;5070918;28;20838;-75
2022/12/17 16:29:39;;;;;;;61.10;37.90;;;;;;;;;;5071742;28;20970;-75
2022/12/17 16:32:07;;;;;;;58.40;37.60;;;;;;;;;;5074624;28;20457;-74
2022/12/17 16:34:34;;;;;;;59.00;36.40;;;;;;;;;;5078453;28;20806;-74
2022/12/17 16:37:01;;;;;;;56.00;37.13;;;;;;;;;;5073338;28;20492;-76
2022/12/17 16:39:28;;;;;;;58.97;38.17;;;;;;;;;;5071379;28;20441;-76
2022/12/17 16:41:56;;;;;;;60.53;36.10;;;;;;;;;;5071223;28;20446;-77
2022/12/17 16:44:23;;;;;;;55.70;35.90;;;;;;;;;;5070384;28;20996;-76
2022/12/17 16:46:50;;;;;;;53.57;35.37;;;;;;;;;;5075698;28;20525;-75
2022/12/17 16:49:20;;;;;;;62.47;36.17;;;;;;;;;;5080269;28;20480;-75
2022/12/17 16:51:48;;;;;;;59.53;36.67;;;;;;;;;;5071826;28;20444;-75
2022/12/17 16:54:16;;;;;;;55.73;36.37;;;;;;;;;;5082890;28;20448;-74
2022/12/17 16:56:44;;;;;;;57.83;36.37;;;;;;;;;;5083095;28;20474;-75
2022/12/17 16:59:12;;;;;;;54.40;35.90;;;;;;;;;;5075727;28;20455;-76
2022/12/17 17:01:39;;;;;;;61.87;38.70;;;;;;;;;;5075776;28;20462;-75
2022/12/17 17:04:07;;;;;;;55.30;36.07;;;;;;;;;;5075190;28;20448;-76
2022/12/17 17:06:39;;;;;;;66.87;39.60;;;;;;;;;;5074377;28;20678;-75
2022/12/17 17:09:06;;;;;;;67.17;42.20;;;;;;;;;;5075363;28;20989;-75
2022/12/17 17:11:33;;;;;;;64.20;38.23;;;;;;;;;;5075629;28;20470;-76
2022/12/17 17:14:00;;;;;;;62.77;36.77;;;;;;;;;;5074769;28;20440;-75
2022/12/17 17:16:29;;;;;;;59.03;36.93;;;;;;;;;;5082120;28;20464;-75
2022/12/17 17:18:56;;;;;;;58.87;35.97;;;;;;;;;;5087477;28;20460;-74
2022/12/17 17:21:24;;;;;;;55.23;36.97;;;;;;;;;;5088444;28;20443;-75
2022/12/17 17:23:54;;;;;;;56.27;36.30;;;;;;;;;;5085378;28;20456;-74
2022/12/17 17:26:21;;;;;;;58.03;37.87;;;;;;;;;;5086042;28;20869;-75
2022/12/17 17:28:49;;;;;;;57.93;35.33;;;;;;;;;;5086838;28;21087;-74
2022/12/17 17:31:17;;;;;;;58.47;37.03;;;;;;;;;;5077720;28;20458;-76
2022/12/17 17:33:45;;;;;;;82.27;46.80;;;;;;;;;;5074943;28;20446;-74
2022/12/17 17:36:13;;;;;;;67.77;41.30;;;;;;;;;;5074673;28;20972;-75
2022/12/17 17:38:41;;;;;;;63.10;39.60;;;;;;;;;;5074020;28;20462;-75
2022/12/17 17:41:11;;;;;;;57.97;37.07;;;;;;;;;;5073795;28;20944;-75
2022/12/17 17:43:38;;;;;;;55.50;36.33;;;;;;;;;;5072820;28;20473;-76
2022/12/17 17:46:06;;;;;;;54.40;34.90;;;;;;;;;;5073381;28;20556;-75
2022/12/17 17:48:33;;;;;;;57.53;35.50;;;;;;;;;;5073689;28;20436;-75
2022/12/17 17:51:01;;;;;;;56.87;37.10;;;;;;;;;;5073847;28;20447;-75
2022/12/17 17:53:28;;;;;;;57.00;37.37;;;;;;;;;;5073155;28;20444;-76
2022/12/17 17:55:55;;;;;;;54.17;33.83;;;;;;;;;;5072986;28;20464;-76
2022/12/17 17:58:24;;;;;;;63.43;37.00;;;;;;;;;;5073433;28;20441;-74
2022/12/17 18:00:51;;;;;;;67.23;41.07;;;;;;;;;;5073828;28;20453;-76
2022/12/17 18:03:18;;;;;;;59.93;39.07;;;;;;;;;;5073131;28;20456;-75
2022/12/17 18:05:45;;;;;;;60.20;36.77;;;;;;;;;;5072513;28;22499;-75
2022/12/17 18:08:12;;;;;;;53.90;37.50;;;;;;;;;;5072387;28;20978;-75
2022/12/17 18:10:39;;;;;;;58.50;36.70;;;;;;;;;;5072342;28;20449;-76
2022/12/17 18:15:52;;;;;;;56.33;35.27;;;;;;;;;;5072731;28;20511;-76
2022/12/17 18:18:19;;;;;;;67.27;38.20;;;;;;;;;;5072210;28;20499;-75
2022/12/17 18:20:46;;;;;;;60.97;37.37;;;;;;;;;;5072706;28;20833;-76
2022/12/17 18:23:13;;;;;;;61.10;36.53;;;;;;;;;;5071955;28;20977;-75
2022/12/17 18:25:40;;;;;;;61.90;38.63;;;;;;;;;;5073418;28;20477;-75
2022/12/17 18:28:07;;;;;;;73.93;40.20;;;;;;;;;;5072669;28;20831;-75
2022/12/17 18:30:38;;;;;;;69.60;39.93;;;;;;;;;;5072680;28;20437;-75
2022/12/17 18:33:06;;;;;;;61.83;38.53;;;;;;;;;;5071662;28;20450;-75
2022/12/17 18:35:33;;;;;;;69.03;38.00;;;;;;;;;;5072302;28;20455;-75
2022/12/17 18:38:00;;;;;;;62.83;36.50;;;;;;;;;;5073377;28;20453;-75
2022/12/17 18:40:27;;;;;;;65.37;38.17;;;;;;;;;;5072710;28;20460;-74
2022/12/17 18:45:39;;;;;;;64.13;36.33;;;;;;;;;;5073343;28;20494;-75
2022/12/17 18:48:07;;;;;;;60.50;37.30;;;;;;;;;;5072975;28;20448;-76
2022/12/17 18:50:35;;;;;;;63.00;37.00;;;;;;;;;;5073203;28;20796;-75
2022/12/17 18:53:02;;;;;;;71.47;40.30;;;;;;;;;;5072371;28;20441;-76
2022/12/17 18:55:29;;;;;;;63.35;36.45;;;;;;;;;;5072212;28;20510;-74
2022/12/17 18:57:56;;;;;;;61.10;37.47;;;;;;;;;;5073932;28;20548;-75
2022/12/17 19:00:23;;;;;;;57.53;35.63;;;;;;;;;;5072765;28;20444;-75
2022/12/17 19:02:50;;;;;;;61.30;38.87;;;;;;;;;;5072238;28;20460;-75
2022/12/17 19:05:18;;;;;;;63.40;38.90;;;;;;;;;;5072587;28;20698;-75
2022/12/17 19:07:45;;;;;;;60.50;36.40;;;;;;;;;;5072496;28;20480;-75
2022/12/17 19:10:12;;;;;;;71.63;39.63;;;;;;;;;;5071887;28;20801;-75
2022/12/17 19:12:39;;;;;;;61.90;36.80;;;;;;;;;;5071354;28;20465;-75
2022/12/17 19:15:07;;;;;;;67.87;37.80;;;;;;;;;;5086741;28;20460;-75
2022/12/17 19:17:34;;;;;;;60.77;37.47;;;;;;;;;;5091328;28;20465;-75
2022/12/17 19:20:01;;;;;;;66.20;39.03;;;;;;;;;;5093046;28;20450;-75
2022/12/17 19:22:29;;;;;;;74.00;41.60;;;;;;;;;;5092033;28;20446;-76
2022/12/17 19:24:56;;;;;;;64.23;39.17;;;;;;;;;;5098245;28;20451;-74
2022/12/17 19:27:24;;;;;;;65.53;40.37;;;;;;;;;;5110184;28;20452;-74
2022/12/17 19:29:51;;;;;;;72.93;39.97;;;;;;;;;;5097983;28;20444;-75
2022/12/17 19:32:18;;;;;;;70.20;41.23;;;;;;;;;;5091549;28;20439;-76
2022/12/17 19:34:45;;;;;;;71.33;40.60;;;;;;;;;;5091313;28;20460;-75
2022/12/17 19:37:12;;;;;;;69.70;41.35;;;;;;;;;;5091621;28;20911;-76
2022/12/17 19:39:40;;;;;;;76.25;41.90;;;;;;;;;;5097435;28;20198;-75
2022/12/17 19:42:23;;;;;;;70.90;38.70;;;;;;;;;;5107993;28;20212;-75
2022/12/17 19:44:50;;;;;;;70.38;40.55;;;;;;;;;;5095643;28;20524;-75
2022/12/17 19:47:17;;;;;;;69.28;40.53;;;;;;;;;;5112911;28;20218;-75
2022/12/17 19:49:44;;;;;;;68.28;41.38;;;;;;;;;;5104421;28;20201;-74
2022/12/17 19:52:11;;;;;;;71.85;39.53;;;;;;;;;;5089629;28;20206;-75
2022/12/17 19:54:38;;;;;;;71.60;41.45;;;;;;;;;;5089144;28;20214;-76
2022/12/17 19:57:06;;;;;;;73.40;40.80;;;;;;;;;;5089037;28;20709;-75
2022/12/17 19:59:33;;;;;;;75.28;41.70;;;;;;;;;;5088920;28;20696;-75
2022/12/17 20:02:02;;;;;;;67.30;41.15;;;;;;;;;;5088940;28;20205;-76
2022/12/17 20:04:29;;;;;;;68.60;38.25;;;;;;;;;;5088408;28;20197;-75
2022/12/17 20:06:57;;;;;;;69.70;39.35;;;;;;;;;;5089047;28;20233;-75
2022/12/17 20:09:24;;;;;;;73.85;41.90;;;;;;;;;;5088662;28;20622;-76
2022/12/17 20:11:51;;;;;;;71.10;40.65;;;;;;;;;;5088964;28;20202;-75
2022/12/17 20:14:21;;;;;;;68.47;41.55;;;;;;;;;;5080093;28;20210;-75
2022/12/17 20:16:49;;;;;;;76.57;41.67;;;;;;;;;;5068506;28;20743;-75
2022/12/17 20:19:17;;;;;;;71.40;39.90;;;;;;;;;;5068581;28;20571;-75
2022/12/17 20:21:44;;;;;;;77.43;41.83;;;;;;;;;;5068237;28;20459;-75
2022/12/17 20:24:12;;;;;;;67.43;40.60;;;;;;;;;;5067842;28;20203;-75
2022/12/17 20:26:39;;;;;;;72.32;39.35;;;;;;;;;;5067696;28;20534;-76
2022/12/17 20:29:07;;;;;;;65.07;38.97;;;;;;;;;;5067449;28;20202;-75
2022/12/17 20:31:35;;;;;;;70.10;39.50;;;;;;;;;;5068837;28;20205;-76
2022/12/17 20:34:02;;;;;;;70.18;38.42;;;;;;;;;;5068254;28;20206;-76
2022/12/17 20:36:30;;;;;;;62.78;37.95;;;;;;;;;;5068412;28;20624;-75
2022/12/17 20:38:57;;;;;;;66.22;37.50;;;;;;;;;;5068668;28;20199;-76
2022/12/17 20:41:26;;;;;;;66.13;38.88;;;;;;;;;;5068977;28;20210;-75
2022/12/17 20:43:53;;;;;;;70.00;38.60;;;;;;;;;;5067932;28;20209;-75
2022/12/17 20:46:21;;;;;;;66.47;39.88;;;;;;;;;;5067946;28;20310;-74
2022/12/17 20:48:50;;;;;;;61.80;38.35;;;;;;;;;;5068113;28;20202;-75
2022/12/17 20:51:17;;;;;;;67.57;38.78;;;;;;;;;;5068237;28;20207;-76
2022/12/17 20:53:46;;;;;;;66.75;38.50;;;;;;;;;;5068132;28;20305;-76
2022/12/17 20:56:14;;;;;;;61.70;38.97;;;;;;;;;;5068024;28;20736;-75
2022/12/17 20:58:41;;;;;;;70.30;43.28;;;;;;;;;;5068212;28;20298;-76
2022/12/17 21:01:09;;;;;;;85.90;45.83;;;;;;;;;;5067924;28;20209;-76
2022/12/17 21:03:36;;;;;;;74.57;43.30;;;;;;;;;;5067975;28;20299;-76
2022/12/17 21:06:09;;;;;;;75.68;40.45;;;;;;;;;;5067866;28;20252;-75
2022/12/17 21:08:36;;;;;;;69.03;39.15;;;;;;;;;;5068044;28;20213;-76
2022/12/17 21:11:03;;;;;;;59.00;38.42;;;;;;;;;;5067587;28;20229;-75
2022/12/17 21:13:30;;;;;;;67.38;36.13;;;;;;;;;;5068051;28;20214;-75
2022/12/17 21:15:58;;;;;;;68.70;39.03;;;;;;;;;;5089035;28;20235;-76
2022/12/17 21:18:25;;;;;;;70.95;39.10;;;;;;;;;;5103202;28;20248;-75
2022/12/17 21:20:56;;;;;;;65.63;37.78;;;;;;;;;;5102228;28;20786;-76
2022/12/17 21:23:25;;;;;;;62.85;38.42;;;;;;;;;;5100444;28;20229;-75
2022/12/17 21:25:59;;;;;;;62.17;37.40;;;;;;;;;;5099346;28;20308;-76
2022/12/17 21:28:26;;;;;;;63.10;35.97;;;;;;;;;;5089514;28;20201;-75
2022/12/17 21:30:53;;;;;;;55.60;35.60;;;;;;;;;;5089044;28;20212;-75
2022/12/17 21:33:20;;;;;;;66.07;39.15;;;;;;;;;;5088083;28;20221;-75
2022/12/17 21:35:47;;;;;;;69.25;38.92;;;;;;;;;;5088250;28;20214;-76
2022/12/17 21:38:15;;;;;;;68.43;40.10;;;;;;;;;;5087975;28;20213;-75
2022/12/17 21:40:43;;;;;;;67.00;39.47;;;;;;;;;;5089427;28;20229;-75
2022/12/17 21:43:10;;;;;;;69.38;37.55;;;;;;;;;;5091192;28;20225;-74
2022/12/17 21:45:38;;;;;;;58.92;38.25;;;;;;;;;;5091057;28;20701;-76
2022/12/17 21:48:06;;;;;;;66.60;38.58;;;;;;;;;;5091782;28;20201;-76
2022/12/17 21:50:33;;;;;;;63.28;36.88;;;;;;;;;;5091287;28;20194;-76
2022/12/17 21:53:00;;;;;;;55.50;35.65;;;;;;;;;;5090817;28;20205;-75
2022/12/17 21:55:28;;;;;;;61.22;36.80;;;;;;;;;;5090757;28;20444;-76
2022/12/17 21:57:56;;;;;;;67.53;37.80;;;;;;;;;;5090950;28;20279;-76
2022/12/17 22:00:23;;;;;;;63.67;35.42;;;;;;;;;;5090828;28;20202;-77
2022/12/17 22:02:50;;;;;;;92.55;52.60;;;;;;;;;;5090707;28;20212;-75
2022/12/17 22:05:17;;;;;;;96.97;53.17;;;;;;;;;;5091157;28;20198;-75
2022/12/17 22:07:44;;;;;;;72.78;41.03;;;;;;;;;;5090514;28;20225;-75
2022/12/17 22:10:12;;;;;;;63.00;37.22;;;;;;;;;;5090881;28;20308;-76
2022/12/17 22:15:25;;;;;;;66.75;37.70;;;;;;;;;;5076650;28;20209;-74
2022/12/17 22:17:53;;;;;;;66.60;40.83;;;;;;;;;;5077219;28;20202;-77
2022/12/17 22:20:20;;;;;;;59.25;36.03;;;;;;;;;;5080001;28;20207;-75
2022/12/17 22:22:47;;;;;;;70.78;37.63;;;;;;;;;;5072758;28;20213;-75
2022/12/17 22:25:15;;;;;;;59.88;36.58;;;;;;;;;;5070873;28;20560;-76
2022/12/17 22:27:42;;;;;;;65.07;36.80;;;;;;;;;;5070454;28;20234;-76
2022/12/17 22:33:02;;;;;;;65.63;37.70;;;;;;;;;;5076670;28;20260;-76
2022/12/17 22:35:32;;;;;;;60.38;35.80;;;;;;;;;;5078601;28;20206;-76
2022/12/17 22:37:59;;;;;;;61.70;37.45;;;;;;;;;;5071942;28;20214;-76
2022/12/17 22:40:27;;;;;;;63.53;38.28;;;;;;;;;;5073550;28;20206;-76
2022/12/17 22:45:39;;;;;;;62.50;37.20;;;;;;;;;;5070681;28;20570;-76
2022/12/17 22:48:08;;;;;;;60.75;38.03;;;;;;;;;;5069815;28;20264;-75
2022/12/17 22:50:35;;;;;;;59.95;37.15;;;;;;;;;;5069643;28;20210;-75
2022/12/17 22:53:02;;;;;;;51.38;33.95;;;;;;;;;;5068775;28;20272;-75
2022/12/17 22:55:30;;;;;;;59.47;37.53;;;;;;;;;;5069565;28;20581;-75
2022/12/17 22:57:57;;;;;;;61.20;37.53;;;;;;;;;;5082372;28;20217;-75
2022/12/17 23:00:25;;;;;;;60.95;35.97;;;;;;;;;;5088663;28;20689;-76
2022/12/17 23:02:53;;;;;;;64.15;35.70;;;;;;;;;;5096607;28;20193;-75
2022/12/17 23:05:22;;;;;;;60.97;37.85;;;;;;;;;;5097992;28;20558;-74
2022/12/17 23:07:49;;;;;;;60.83;36.95;;;;;;;;;;5096239;28;20221;-75
2022/12/17 23:10:16;;;;;;;56.47;36.45;;;;;;;;;;5088199;28;20614;-75
2022/12/17 23:12:53;;;;;;;59.95;36.00;;;;;;;;;;5087185;28;20197;-75
2022/12/17 23:15:21;;;;;;;60.17;36.10;;;;;;;;;;5090677;28;20564;-75
2022/12/17 23:17:48;;;;;;;62.78;38.47;;;;;;;;;;5087315;28;20202;-75
2022/12/17 23:20:16;;;;;;;58.88;37.33;;;;;;;;;;5084645;28;20201;-74
2022/12/17 23:22:44;;;;;;;65.68;38.63;;;;;;;;;;5078705;28;20201;-76
2022/12/17 23:25:14;;;;;;;59.13;36.72;;;;;;;;;;5078257;28;20209;-75
2022/12/17 23:27:41;;;;;;;62.05;37.95;;;;;;;;;;5079250;28;20226;-74
2022/12/17 23:30:09;;;;;;;59.15;37.20;;;;;;;;;;5077407;28;20202;-74
2022/12/17 23:32:36;;;;;;;60.97;36.03;;;;;;;;;;5081432;28;20201;-75
2022/12/17 23:35:04;;;;;;;56.50;34.83;;;;;;;;;;5091493;28;20290;-76
2022/12/17 23:37:31;;;;;;;65.00;37.53;;;;;;;;;;5101730;28;20224;-74
2022/12/17 23:39:59;;;;;;;65.50;36.90;;;;;;;;;;5086111;28;20210;-75
2022/12/17 23:42:26;;;;;;;62.78;36.63;;;;;;;;;;5087679;28;20194;-75
2022/12/17 23:44:53;;;;;;;56.88;37.95;;;;;;;;;;5078908;28;20189;-75
2022/12/17 23:47:20;;;;;;;56.88;37.33;;;;;;;;;;5077815;28;20706;-76
2022/12/17 23:49:47;;;;;;;55.97;36.75;;;;;;;;;;5079950;28;20195;-75
2022/12/17 23:52:14;;;;;;;58.75;36.90;;;;;;;;;;5088712;28;20223;-76
2022/12/17 23:54:42;;;;;;;62.95;37.28;;;;;;;;;;5087693;28;20217;-76
2022/12/17 23:57:10;;;;;;;62.78;38.85;;;;;;;;;;5083129;28;20214;-75
2022/12/17 23:59:37;;;;;;;64.07;37.10;;;;;;;;;;5088752;28;20206;-75
